Time;durP1;ratioP1;P1;durP2;ratioP2;P2;SDS_P1;SDS_P2;PMS_P1;PMS_P2;Temp;Humidity;BMP_temperature;BMP_pressure;BME280_temperature;BME280_humidity;BME280_pressure;Samples;Min_cycle;Max_cycle;Signal;HPM_P1;HPM_P2
2024/02/16 00:00:07;;;;;;;1.52;0.98;;;13.10;95.70;;;;;;5050992;28;20064;-66
2024/02/16 00:02:32;;;;;;;1.75;0.85;;;13.20;95.70;;;;;;5050317;28;20094;-65
2024/02/16 00:04:58;;;;;;;2.00;1.27;;;13.20;95.60;;;;;;5050632;28;20483;-66
2024/02/16 00:07:27;;;;;;;1.52;1.02;;;13.10;95.50;;;;;;5051196;28;20373;-67
2024/02/16 00:09:52;;;;;;;3.63;1.30;;;13.10;95.50;;;;;;5051104;28;20557;-66
2024/02/16 00:12:18;;;;;;;3.38;1.50;;;13.10;95.40;;;;;;5050604;28;20025;-67
2024/02/16 00:14:45;;;;;;;2.40;1.27;;;13.10;95.20;;;;;;5044320;28;20029;-67
2024/02/16 00:17:11;;;;;;;1.50;1.20;;;13.10;95.20;;;;;;5049110;28;20017;-66
2024/02/16 00:19:37;;;;;;;1.23;1.10;;;13.20;95.30;;;;;;5049170;28;20541;-66
2024/02/16 00:22:02;;;;;;;2.50;1.25;;;13.20;95.20;;;;;;5051718;28;20056;-66
2024/02/16 00:24:29;;;;;;;1.27;1.10;;;13.20;95.20;;;;;;5051233;28;20021;-68
2024/02/16 00:26:55;;;;;;;1.90;1.10;;;13.20;95.10;;;;;;5051283;28;20426;-67
2024/02/16 00:29:20;;;;;;;1.45;0.90;;;13.10;95.10;;;;;;5047448;28;20025;-67
2024/02/16 00:31:46;;;;;;;1.58;1.00;;;13.10;95.20;;;;;;5051377;28;20641;-67
2024/02/16 00:34:11;;;;;;;1.00;0.90;;;13.10;95.20;;;;;;5052219;28;20463;-67
2024/02/16 00:36:37;;;;;;;0.90;0.90;;;13.10;95.10;;;;;;5050822;28;20025;-68
2024/02/16 00:39:03;;;;;;;2.38;1.20;;;13.00;95.10;;;;;;5048891;28;20036;-68
2024/02/16 00:41:29;;;;;;;1.52;1.10;;;13.00;95.20;;;;;;5052176;28;20055;-68
2024/02/16 00:43:56;;;;;;;1.63;1.20;;;13.00;95.30;;;;;;5051751;28;20114;-68
2024/02/16 00:46:22;;;;;;;1.35;1.00;;;13.00;95.20;;;;;;5052118;28;20044;-67
2024/02/16 00:48:49;;;;;;;1.52;1.23;;;13.00;95.30;;;;;;5051716;28;20479;-68
2024/02/16 00:51:15;;;;;;;1.63;1.20;;;13.00;95.20;;;;;;5052041;28;20025;-67
2024/02/16 00:53:40;;;;;;;0.95;0.85;;;13.00;95.10;;;;;;5045849;28;20332;-67
2024/02/16 00:56:07;;;;;;;1.00;0.90;;;13.00;95.20;;;;;;5051766;28;20467;-67
2024/02/16 00:58:32;;;;;;;1.67;0.90;;;12.90;95.10;;;;;;5050796;28;20025;-67
2024/02/16 01:00:58;;;;;;;1.05;0.90;;;12.90;95.10;;;;;;5052546;28;20080;-68
2024/02/16 01:03:26;;;;;;;1.58;1.00;;;12.90;95.10;;;;;;5051512;28;20017;-66
2024/02/16 01:05:54;;;;;;;1.23;0.90;;;12.80;95.10;;;;;;5050761;28;20022;-68
2024/02/16 01:08:20;;;;;;;1.00;0.82;;;12.80;95.30;;;;;;5050586;28;20013;-67
2024/02/16 01:10:46;;;;;;;1.45;1.00;;;12.80;95.30;;;;;;5050824;28;20087;-68
2024/02/16 01:13:12;;;;;;;1.05;0.90;;;12.80;95.30;;;;;;5051712;28;20006;-68
2024/02/16 01:15:38;;;;;;;2.45;0.90;;;12.80;95.30;;;;;;5051436;28;20483;-67
2024/02/16 01:18:06;;;;;;;1.02;0.70;;;12.90;95.20;;;;;;5050416;28;20095;-68
2024/02/16 01:20:32;;;;;;;1.25;1.00;;;12.80;95.20;;;;;;5049853;28;20032;-68
2024/02/16 01:22:57;;;;;;;1.27;0.95;;;12.80;95.20;;;;;;5052054;28;20029;-67
2024/02/16 01:25:23;;;;;;;1.92;1.23;;;12.90;95.30;;;;;;5050795;28;20032;-66
2024/02/16 01:27:48;;;;;;;1.88;1.20;;;12.90;95.20;;;;;;5050728;28;20029;-67
2024/02/16 01:30:15;;;;;;;3.05;1.60;;;12.90;95.10;;;;;;5048463;28;20159;-66
2024/02/16 01:32:41;;;;;;;3.63;1.27;;;12.90;95.10;;;;;;5051162;28;20021;-67
2024/02/16 01:35:07;;;;;;;3.20;1.00;;;12.90;95.10;;;;;;5049028;28;20032;-67
2024/02/16 01:37:32;;;;;;;1.50;0.90;;;12.90;95.00;;;;;;5047078;28;20103;-66
2024/02/16 01:39:58;;;;;;;1.13;1.00;;;12.90;95.00;;;;;;5050227;28;20108;-66
2024/02/16 01:42:24;;;;;;;2.08;0.90;;;12.80;94.90;;;;;;5050317;28;20053;-67
2024/02/16 01:44:50;;;;;;;1.90;1.17;;;12.80;94.90;;;;;;5051625;28;20038;-67
2024/02/16 01:47:18;;;;;;;1.95;1.10;;;12.80;95.00;;;;;;5050541;28;20035;-67
2024/02/16 01:49:44;;;;;;;1.02;0.88;;;12.80;95.00;;;;;;5050300;28;20099;-67
2024/02/16 01:52:10;;;;;;;1.17;0.88;;;12.70;94.90;;;;;;5049687;28;20107;-66
2024/02/16 01:54:36;;;;;;;1.13;1.02;;;12.80;94.90;;;;;;5049844;28;20096;-67
2024/02/16 01:57:03;;;;;;;1.38;0.77;;;12.70;94.90;;;;;;5050229;28;20020;-66
2024/02/16 01:59:29;;;;;;;2.00;1.00;;;12.80;95.00;;;;;;5049827;28;20025;-66
2024/02/16 02:01:55;;;;;;;1.02;0.90;;;12.70;94.80;;;;;;5049629;28;20079;-67
2024/02/16 02:04:21;;;;;;;1.40;1.10;;;12.70;94.70;;;;;;5050117;28;20498;-67
2024/02/16 02:06:46;;;;;;;1.15;1.05;;;12.60;94.90;;;;;;5048836;28;20040;-68
2024/02/16 02:09:12;;;;;;;1.10;1.00;;;12.60;95.00;;;;;;5049309;28;20025;-67
2024/02/16 02:11:37;;;;;;;1.80;0.70;;;12.60;95.00;;;;;;5049226;28;20775;-67
2024/02/16 02:14:03;;;;;;;1.77;0.80;;;12.70;95.10;;;;;;5048383;28;20056;-68
2024/02/16 02:16:28;;;;;;;1.13;0.82;;;12.70;95.00;;;;;;5049462;28;20024;-67
2024/02/16 02:18:54;;;;;;;0.85;0.73;;;12.60;95.00;;;;;;5046316;28;20072;-66
2024/02/16 02:21:20;;;;;;;1.27;0.98;;;12.60;95.00;;;;;;5047134;28;20075;-65
2024/02/16 02:23:46;;;;;;;2.53;1.10;;;12.60;95.00;;;;;;5048898;28;20041;-67
2024/02/16 02:26:16;;;;;;;1.15;0.80;;;12.70;95.00;;;;;;5048024;28;20031;-66
2024/02/16 02:28:42;;;;;;;3.08;1.00;;;12.60;94.90;;;;;;5048541;28;20044;-67
2024/02/16 02:31:08;;;;;;;1.48;0.90;;;12.60;94.70;;;;;;5048045;28;20602;-66
2024/02/16 02:33:35;;;;;;;1.08;0.98;;;12.60;94.90;;;;;;5048725;28;20078;-67
2024/02/16 02:36:01;;;;;;;1.13;0.70;;;12.60;94.90;;;;;;5049475;28;20013;-66
2024/02/16 02:38:27;;;;;;;1.67;1.17;;;12.60;94.90;;;;;;5044335;28;20055;-67
2024/02/16 02:40:52;;;;;;;1.50;1.10;;;12.60;94.80;;;;;;5048604;28;20103;-66
2024/02/16 02:43:19;;;;;;;1.35;1.00;;;12.60;94.90;;;;;;5048357;28;20163;-67
2024/02/16 02:45:44;;;;;;;1.58;1.00;;;12.60;94.90;;;;;;5049161;28;20641;-67
2024/02/16 02:48:10;;;;;;;1.33;0.90;;;12.60;94.90;;;;;;5047949;28;20115;-66
2024/02/16 02:50:36;;;;;;;1.10;1.00;;;12.60;94.80;;;;;;5045565;28;20033;-66
2024/02/16 02:53:01;;;;;;;1.52;1.20;;;12.70;94.80;;;;;;5048879;28;20021;-66
2024/02/16 02:55:27;;;;;;;1.60;0.82;;;12.70;94.70;;;;;;5043963;28;20036;-67
2024/02/16 02:57:52;;;;;;;1.38;1.00;;;12.70;94.60;;;;;;5047284;28;20021;-67
2024/02/16 03:00:18;;;;;;;1.90;1.25;;;12.70;94.60;;;;;;5048604;28;20029;-68
2024/02/16 03:02:44;;;;;;;1.58;1.23;;;12.70;94.60;;;;;;5048483;28;20044;-67
2024/02/16 03:05:11;;;;;;;1.70;1.30;;;12.70;94.60;;;;;;5048390;28;20025;-66
2024/02/16 03:07:37;;;;;;;1.20;1.00;;;12.70;94.50;;;;;;5046682;28;20024;-67
2024/02/16 03:10:03;;;;;;;1.38;0.77;;;12.70;94.40;;;;;;5048377;28;20031;-66
2024/02/16 03:12:29;;;;;;;0.82;0.82;;;12.70;94.50;;;;;;5043778;28;20053;-67
2024/02/16 03:14:55;;;;;;;1.70;0.93;;;12.80;94.50;;;;;;5048390;28;20055;-67
2024/02/16 03:17:20;;;;;;;0.98;0.90;;;12.80;94.40;;;;;;5048324;28;20024;-66
2024/02/16 03:19:46;;;;;;;0.90;0.80;;;12.70;94.40;;;;;;5047607;28;20079;-67
2024/02/16 03:22:12;;;;;;;1.60;0.88;;;12.80;94.40;;;;;;5046694;28;20056;-67
2024/02/16 03:24:38;;;;;;;0.70;0.70;;;12.80;94.40;;;;;;5045516;28;20064;-66
2024/02/16 03:27:04;;;;;;;1.00;0.90;;;12.80;94.40;;;;;;5047460;28;20029;-66
2024/02/16 03:29:29;;;;;;;0.85;0.80;;;12.70;94.40;;;;;;5048071;28;20051;-67
2024/02/16 03:31:55;;;;;;;1.00;0.90;;;12.70;94.40;;;;;;5048614;28;20035;-68
2024/02/16 03:34:20;;;;;;;0.85;0.70;;;12.70;94.30;;;;;;5054011;28;20100;-69
2024/02/16 03:36:46;;;;;;;1.10;0.90;;;12.70;94.40;;;;;;5054946;28;20115;-67
2024/02/16 03:39:11;;;;;;;0.80;0.80;;;12.80;94.50;;;;;;5053751;28;20043;-67
2024/02/16 03:41:37;;;;;;;0.95;0.90;;;12.80;94.40;;;;;;5049003;28;20032;-67
2024/02/16 03:44:03;;;;;;;1.90;1.00;;;12.90;94.40;;;;;;5053304;28;20024;-67
2024/02/16 03:46:28;;;;;;;0.77;0.77;;;12.90;94.30;;;;;;5054719;28;20036;-68
2024/02/16 03:48:54;;;;;;;2.25;1.00;;;12.80;94.20;;;;;;5053760;28;20032;-67
2024/02/16 03:51:20;;;;;;;1.20;0.80;;;12.90;94.20;;;;;;5055117;28;20028;-67
2024/02/16 03:53:46;;;;;;;0.85;0.82;;;12.90;94.20;;;;;;5054211;28;20411;-66
2024/02/16 03:56:12;;;;;;;1.00;0.93;;;12.90;94.20;;;;;;5054408;28;20028;-67
2024/02/16 03:58:37;;;;;;;1.40;0.90;;;12.90;94.10;;;;;;5054430;28;20021;-68
2024/02/16 04:01:06;;;;;;;1.58;0.80;;;12.80;94.10;;;;;;5046806;28;20025;-68
2024/02/16 04:03:32;;;;;;;1.15;0.80;;;12.90;94.20;;;;;;5054037;28;20510;-68
2024/02/16 04:05:59;;;;;;;1.10;0.93;;;12.80;94.10;;;;;;5053718;28;20021;-68
2024/02/16 04:08:25;;;;;;;1.42;0.80;;;12.80;94.10;;;;;;5054488;28;20021;-69
2024/02/16 04:10:50;;;;;;;0.88;0.75;;;12.90;94.20;;;;;;5054424;28;20033;-67
2024/02/16 04:13:16;;;;;;;1.08;0.90;;;12.90;94.20;;;;;;5054943;28;20040;-69
2024/02/16 04:15:42;;;;;;;1.27;0.93;;;12.90;94.10;;;;;;5054333;28;20017;-67
2024/02/16 04:18:07;;;;;;;1.02;0.90;;;12.90;94.10;;;;;;5050630;28;20058;-67
2024/02/16 04:20:33;;;;;;;1.23;0.82;;;12.80;94.00;;;;;;5050805;28;20032;-67
2024/02/16 04:22:58;;;;;;;1.27;1.08;;;12.80;94.00;;;;;;5055118;28;20025;-68
2024/02/16 04:25:24;;;;;;;1.40;1.05;;;12.80;94.00;;;;;;5054856;28;20475;-66
2024/02/16 04:27:49;;;;;;;1.08;0.95;;;12.80;94.00;;;;;;5053688;28;20075;-68
2024/02/16 04:30:15;;;;;;;2.78;1.30;;;12.80;94.00;;;;;;5054227;28;20632;-68
2024/02/16 04:32:41;;;;;;;2.22;1.33;;;12.80;93.90;;;;;;5054910;28;20020;-67
2024/02/16 04:35:11;;;;;;;2.30;1.65;;;12.80;93.80;;;;;;5054471;28;20365;-67
2024/02/16 04:37:38;;;;;;;2.80;1.70;;;12.80;93.60;;;;;;5053943;28;20109;-67
2024/02/16 04:40:05;;;;;;;3.08;1.50;;;12.80;93.50;;;;;;5051230;28;20017;-66
2024/02/16 04:42:31;;;;;;;2.70;1.58;;;12.80;93.40;;;;;;5051116;28;20364;-67
2024/02/16 04:44:56;;;;;;;2.25;1.38;;;12.80;93.30;;;;;;5050232;28;20036;-67
2024/02/16 04:47:22;;;;;;;2.17;1.60;;;12.80;93.20;;;;;;5049588;28;20382;-69
2024/02/16 04:49:47;;;;;;;2.53;1.70;;;12.90;93.20;;;;;;5050958;28;20554;-67
2024/02/16 04:52:13;;;;;;;3.50;1.90;;;12.90;92.90;;;;;;5050576;28;20368;-67
2024/02/16 04:54:40;;;;;;;2.40;1.67;;;12.90;92.70;;;;;;5048757;28;20021;-68
2024/02/16 04:57:06;;;;;;;2.47;1.70;;;13.00;92.90;;;;;;5049285;28;20028;-67
2024/02/16 04:59:31;;;;;;;3.70;2.05;;;13.00;92.60;;;;;;5047642;28;20025;-67
2024/02/16 05:01:57;;;;;;;2.97;1.63;;;13.00;92.20;;;;;;5049484;28;20035;-69
2024/02/16 05:04:22;;;;;;;3.35;2.03;;;13.00;92.20;;;;;;5048317;28;20051;-67
2024/02/16 05:06:49;;;;;;;3.00;1.85;;;13.00;92.00;;;;;;5049315;28;20086;-67
2024/02/16 05:09:16;;;;;;;1.80;1.42;;;13.10;91.80;;;;;;5050674;28;20040;-66
2024/02/16 05:11:42;;;;;;;2.22;1.42;;;13.10;91.90;;;;;;5048418;28;20029;-67
2024/02/16 05:14:08;;;;;;;3.03;1.70;;;13.10;91.90;;;;;;5050258;28;20420;-66
2024/02/16 05:16:33;;;;;;;2.55;1.70;;;13.10;91.70;;;;;;5050107;28;20028;-67
2024/02/16 05:18:59;;;;;;;3.80;1.98;;;13.10;91.70;;;;;;5049652;28;20045;-66
2024/02/16 05:21:24;;;;;;;4.75;2.30;;;13.20;91.60;;;;;;5048884;28;20025;-67
2024/02/16 05:23:50;;;;;;;2.38;1.90;;;13.20;91.50;;;;;;5046425;28;20108;-68
2024/02/16 05:26:15;;;;;;;3.00;1.73;;;13.20;91.40;;;;;;5053665;28;20025;-67
2024/02/16 05:28:41;;;;;;;2.40;1.50;;;13.20;91.40;;;;;;5050812;28;20476;-67
2024/02/16 05:31:20;;;;;;;3.03;1.67;;;13.10;91.30;;;;;;5052831;28;20071;-68
2024/02/16 05:33:49;;;;;;;2.72;1.60;;;13.20;91.30;;;;;;5050005;28;20025;-66
2024/02/16 05:36:20;;;;;;;4.50;2.00;;;13.20;91.30;;;;;;5049824;28;20483;-67
2024/02/16 05:38:46;;;;;;;3.22;2.00;;;13.20;91.10;;;;;;5049942;28;20043;-68
2024/02/16 05:41:12;;;;;;;2.45;1.77;;;13.20;91.10;;;;;;5050597;28;20021;-67
2024/02/16 05:43:38;;;;;;;2.55;1.80;;;13.20;91.10;;;;;;5056094;28;20462;-67
2024/02/16 05:46:06;;;;;;;1.55;1.40;;;13.20;91.10;;;;;;5053266;28;20029;-66
2024/02/16 05:48:35;;;;;;;2.00;1.30;;;13.30;91.20;;;;;;5052672;28;20161;-68
2024/02/16 05:51:00;;;;;;;3.35;1.90;;;13.30;91.30;;;;;;5051160;28;20052;-67
2024/02/16 05:53:27;;;;;;;2.10;1.60;;;13.30;91.20;;;;;;5047253;28;20368;-66
2024/02/16 05:55:53;;;;;;;3.65;1.60;;;13.30;91.30;;;;;;5054794;28;20039;-67
2024/02/16 05:58:19;;;;;;;2.63;1.85;;;13.30;91.30;;;;;;5049646;28;20017;-67
2024/02/16 06:00:47;;;;;;;2.38;1.60;;;13.30;91.20;;;;;;5049831;28;20037;-67
2024/02/16 06:03:13;;;;;;;4.50;1.80;;;13.20;91.20;;;;;;5050497;28;20025;-67
2024/02/16 06:05:40;;;;;;;2.83;1.80;;;13.30;91.20;;;;;;5053568;28;20031;-67
2024/02/16 06:08:07;;;;;;;3.08;1.80;;;13.30;91.10;;;;;;5052207;28;20016;-67
2024/02/16 06:10:32;;;;;;;2.60;1.73;;;13.30;91.10;;;;;;5048509;28;20044;-67
2024/02/16 06:12:58;;;;;;;3.60;1.98;;;13.30;91.10;;;;;;5050749;28;20475;-68
2024/02/16 06:15:24;;;;;;;4.07;1.98;;;13.30;91.00;;;;;;5053059;28;20029;-68
2024/02/16 06:17:52;;;;;;;2.05;1.60;;;13.30;91.00;;;;;;5055040;28;20032;-65
2024/02/16 06:20:18;;;;;;;1.75;1.50;;;13.30;91.10;;;;;;5050833;28;20036;-66
2024/02/16 06:22:43;;;;;;;2.42;1.60;;;13.30;91.00;;;;;;5049149;28;20091;-66
2024/02/16 06:25:09;;;;;;;2.00;1.35;;;13.30;91.10;;;;;;5048128;28;20103;-67
2024/02/16 06:27:35;;;;;;;2.35;1.55;;;13.30;91.10;;;;;;5048902;28;20108;-66
2024/02/16 06:30:05;;;;;;;2.90;1.98;;;13.30;91.10;;;;;;5045945;28;20025;-66
2024/02/16 06:32:31;;;;;;;2.97;1.70;;;13.30;91.10;;;;;;5049075;28;20104;-66
2024/02/16 06:34:57;;;;;;;2.17;1.60;;;13.30;91.10;;;;;;5048310;28;20063;-66
2024/02/16 06:37:22;;;;;;;2.20;1.60;;;13.30;91.10;;;;;;5049208;28;20013;-67
2024/02/16 06:39:48;;;;;;;3.15;2.20;;;13.30;91.40;;;;;;5048391;28;20043;-65
2024/02/16 06:42:14;;;;;;;4.78;2.45;;;13.40;91.00;;;;;;5049982;28;20694;-67
2024/02/16 06:44:40;;;;;;;4.05;2.20;;;13.40;90.80;;;;;;5049177;28;20082;-67
2024/02/16 06:47:06;;;;;;;2.53;1.80;;;13.40;90.70;;;;;;5045822;28;20067;-66
2024/02/16 06:49:32;;;;;;;2.58;1.92;;;13.40;90.80;;;;;;5047165;28;20072;-67
2024/02/16 06:51:57;;;;;;;4.07;2.22;;;13.40;90.70;;;;;;5046863;28;20044;-65
2024/02/16 06:54:26;;;;;;;5.57;2.40;;;13.50;90.70;;;;;;5041024;28;20048;-67
2024/02/16 06:56:51;;;;;;;3.97;2.00;;;13.50;90.70;;;;;;5047939;28;20487;-67
2024/02/16 06:59:17;;;;;;;2.78;2.10;;;13.50;90.70;;;;;;5048631;28;20025;-67
2024/02/16 07:01:43;;;;;;;4.05;2.30;;;13.50;90.70;;;;;;5045780;28;20028;-67
2024/02/16 07:04:09;;;;;;;4.38;2.42;;;13.50;90.60;;;;;;5047579;28;20036;-66
2024/02/16 07:06:35;;;;;;;3.95;2.05;;;13.50;90.50;;;;;;5047187;28;20613;-67
2024/02/16 07:09:00;;;;;;;5.65;2.22;;;13.50;90.50;;;;;;5047979;28;20029;-67
2024/02/16 07:11:26;;;;;;;2.85;1.80;;;13.60;90.50;;;;;;5048216;28;20017;-69
2024/02/16 07:13:52;;;;;;;4.40;2.05;;;13.60;90.50;;;;;;5048544;28;20053;-67
2024/02/16 07:16:18;;;;;;;2.70;1.88;;;13.60;90.50;;;;;;5048898;28;20025;-68
2024/02/16 07:18:44;;;;;;;3.25;1.95;;;13.60;90.60;;;;;;5046249;28;20044;-67
2024/02/16 07:21:09;;;;;;;3.85;1.85;;;13.60;90.60;;;;;;5047569;28;20025;-67
2024/02/16 07:23:35;;;;;;;3.13;2.00;;;13.70;90.60;;;;;;5044419;28;20116;-68
2024/02/16 07:26:01;;;;;;;2.17;1.83;;;13.70;90.60;;;;;;5047712;28;20029;-70
2024/02/16 07:28:27;;;;;;;2.78;1.80;;;13.70;90.60;;;;;;5047111;28;20086;-68
2024/02/16 07:30:53;;;;;;;3.15;1.70;;;13.70;90.60;;;;;;5046367;28;20040;-68
2024/02/16 07:33:19;;;;;;;2.60;1.60;;;13.70;90.60;;;;;;5047500;28;20021;-69
2024/02/16 07:35:44;;;;;;;4.88;2.10;;;13.70;90.70;;;;;;5045868;28;20480;-67
2024/02/16 07:38:10;;;;;;;2.92;1.85;;;13.70;90.70;;;;;;5047351;28;20067;-68
2024/02/16 07:40:36;;;;;;;3.78;1.92;;;13.70;90.70;;;;;;5046575;28;20036;-68
2024/02/16 07:43:02;;;;;;;3.15;2.20;;;13.70;90.70;;;;;;5046770;28;20033;-67
2024/02/16 07:45:28;;;;;;;3.60;2.13;;;13.70;90.60;;;;;;5046915;28;20021;-67
2024/02/16 07:47:54;;;;;;;3.63;1.85;;;13.80;90.60;;;;;;5047688;28;20041;-67
2024/02/16 07:50:20;;;;;;;2.35;1.60;;;13.80;90.60;;;;;;5046552;28;20033;-67
2024/02/16 07:52:46;;;;;;;4.90;2.70;;;13.80;90.70;;;;;;5048398;28;20025;-66
2024/02/16 07:55:12;;;;;;;3.88;2.05;;;13.80;90.60;;;;;;5047333;28;20017;-66
2024/02/16 07:57:38;;;;;;;5.13;2.67;;;13.80;90.50;;;;;;5046045;28;20378;-66
2024/02/16 08:00:10;;;;;;;4.28;2.25;;;13.70;90.40;;;;;;5046934;28;20033;-67
2024/02/16 08:02:36;;;;;;;3.67;2.10;;;13.70;90.50;;;;;;5046999;28;20025;-67
2024/02/16 08:05:02;;;;;;;2.47;1.92;;;13.80;90.60;;;;;;5045866;28;20028;-67
2024/02/16 08:07:28;;;;;;;3.25;2.00;;;13.80;90.60;;;;;;5043667;28;20031;-67
2024/02/16 08:09:53;;;;;;;3.17;1.85;;;13.80;90.60;;;;;;5047169;28;20059;-67
2024/02/16 08:12:19;;;;;;;3.83;1.95;;;13.80;90.60;;;;;;5047742;28;20391;-67
2024/02/16 08:14:46;;;;;;;2.35;1.80;;;13.80;90.70;;;;;;5048026;28;20114;-66
2024/02/16 08:17:11;;;;;;;3.95;2.00;;;13.90;90.70;;;;;;5042775;28;20020;-66
2024/02/16 08:19:38;;;;;;;4.35;2.40;;;13.90;90.70;;;;;;5047802;28;20025;-66
2024/02/16 08:22:05;;;;;;;3.50;2.10;;;13.90;90.70;;;;;;5051513;28;20036;-66
2024/02/16 08:24:38;;;;;;;2.42;1.40;;;13.90;90.80;;;;;;5050601;28;20029;-66
2024/02/16 08:27:04;;;;;;;3.05;1.88;;;13.90;90.80;;;;;;5050600;28;20480;-67
2024/02/16 08:29:30;;;;;;;3.00;2.08;;;14.00;90.80;;;;;;5051688;28;20025;-66
2024/02/16 08:31:56;;;;;;;2.40;1.90;;;14.00;90.80;;;;;;5051259;28;20086;-67
2024/02/16 08:34:21;;;;;;;1.90;1.70;;;14.00;90.80;;;;;;5051301;28;20035;-66
2024/02/16 08:36:48;;;;;;;2.70;1.48;;;14.00;90.80;;;;;;5046287;28;20024;-66
2024/02/16 08:39:15;;;;;;;1.90;1.63;;;14.10;90.80;;;;;;5050489;28;20033;-66
2024/02/16 08:41:41;;;;;;;2.58;1.67;;;14.10;90.90;;;;;;5050619;28;20076;-66
2024/02/16 08:44:10;;;;;;;4.03;2.03;;;14.10;90.80;;;;;;5050261;28;20061;-67
2024/02/16 08:46:36;;;;;;;3.13;2.00;;;14.10;90.80;;;;;;5051431;28;20017;-67
2024/02/16 08:49:03;;;;;;;3.00;2.08;;;14.20;90.80;;;;;;5049929;28;20107;-67
2024/02/16 08:51:28;;;;;;;4.75;2.05;;;14.20;90.80;;;;;;5047546;28;20066;-67
2024/02/16 08:53:54;;;;;;;3.22;2.20;;;14.20;90.80;;;;;;5050756;28;20029;-67
2024/02/16 08:56:20;;;;;;;5.25;2.67;;;14.20;90.70;;;;;;5048078;28;20025;-66
2024/02/16 08:58:45;;;;;;;6.20;2.85;;;14.20;90.70;;;;;;5050634;28;20465;-67
2024/02/16 09:01:11;;;;;;;4.43;2.25;;;14.20;90.70;;;;;;5046309;28;20032;-66
2024/02/16 09:03:39;;;;;;;3.78;2.58;;;14.20;90.70;;;;;;5049589;28;20036;-66
2024/02/16 09:06:04;;;;;;;4.97;2.40;;;14.30;90.70;;;;;;5050350;28;20036;-67
2024/02/16 09:08:35;;;;;;;2.92;1.92;;;14.40;90.70;;;;;;5045522;28;20024;-66
2024/02/16 09:11:04;;;;;;;2.75;1.85;;;14.40;90.70;;;;;;5048378;28;20059;-66
2024/02/16 09:13:33;;;;;;;4.68;1.90;;;14.40;90.70;;;;;;5042518;28;20045;-67
2024/02/16 09:16:00;;;;;;;3.78;2.05;;;14.40;90.70;;;;;;5050112;28;20060;-67
2024/02/16 09:18:26;;;;;;;2.65;1.90;;;14.40;90.70;;;;;;5049431;28;20021;-67
2024/02/16 09:20:52;;;;;;;4.75;2.17;;;14.40;90.70;;;;;;5048397;28;20583;-67
2024/02/16 09:23:18;;;;;;;3.75;2.17;;;14.50;90.80;;;;;;5057063;28;20108;-67
2024/02/16 09:25:45;;;;;;;2.88;1.60;;;14.50;90.80;;;;;;5044846;28;20483;-67
2024/02/16 09:28:11;;;;;;;3.08;2.15;;;14.50;90.80;;;;;;5047428;28;20606;-67
2024/02/16 09:30:37;;;;;;;5.28;2.50;;;14.50;90.80;;;;;;5048062;28;20100;-67
2024/02/16 09:33:03;;;;;;;4.85;2.40;;;14.50;90.80;;;;;;5050091;28;20025;-68
2024/02/16 09:35:29;;;;;;;3.80;2.80;;;14.50;90.70;;;;;;5048271;28;20380;-67
2024/02/16 09:37:54;;;;;;;3.50;1.73;;;14.60;90.80;;;;;;5044097;28;20028;-67
2024/02/16 09:40:21;;;;;;;4.43;2.42;;;14.60;90.80;;;;;;5048936;28;20040;-67
2024/02/16 09:42:51;;;;;;;3.95;2.58;;;14.60;90.80;;;;;;5048551;28;20039;-67
2024/02/16 09:45:17;;;;;;;4.03;2.50;;;14.60;90.80;;;;;;5049123;28;20032;-67
2024/02/16 09:47:44;;;;;;;3.17;2.10;;;14.60;90.80;;;;;;5049586;28;20829;-67
2024/02/16 09:50:10;;;;;;;2.67;2.00;;;14.60;90.80;;;;;;5049179;28;20122;-67
2024/02/16 09:52:37;;;;;;;3.33;2.25;;;14.60;90.90;;;;;;5048587;28;20471;-67
2024/02/16 09:55:05;;;;;;;3.80;2.10;;;14.60;90.90;;;;;;5043147;28;20024;-67
2024/02/16 09:57:32;;;;;;;5.22;2.60;;;14.60;91.00;;;;;;5046402;28;20024;-67
2024/02/16 09:59:57;;;;;;;3.75;2.50;;;14.60;91.00;;;;;;5048859;28;20475;-67
2024/02/16 10:02:23;;;;;;;4.28;2.50;;;14.60;91.00;;;;;;5045087;28;21396;-69
2024/02/16 10:04:49;;;;;;;4.22;2.28;;;14.60;91.10;;;;;;5048536;28;20031;-69
2024/02/16 10:07:15;;;;;;;4.00;2.28;;;14.60;91.10;;;;;;5047933;28;20166;-68
2024/02/16 10:09:40;;;;;;;5.57;2.70;;;14.60;91.20;;;;;;5047980;28;20107;-69
2024/02/16 10:12:06;;;;;;;4.70;2.70;;;14.60;91.10;;;;;;5050730;28;20021;-68
2024/02/16 10:14:32;;;;;;;3.20;2.10;;;14.60;91.20;;;;;;5049202;28;20018;-68
2024/02/16 10:17:06;;;;;;;3.17;1.77;;;14.70;91.20;;;;;;5043174;28;20039;-68
2024/02/16 10:19:39;;;;;;;3.58;1.90;;;14.70;91.20;;;;;;5048653;28;20028;-66
2024/02/16 10:22:11;;;;;;;2.50;1.80;;;14.70;91.10;;;;;;5052064;28;20032;-69
2024/02/16 10:24:42;;;;;;;2.45;1.80;;;14.80;91.20;;;;;;5049801;28;20368;-67
2024/02/16 10:27:17;;;;;;;2.30;1.60;;;14.80;91.20;;;;;;5043059;28;20028;-67
2024/02/16 10:29:50;;;;;;;2.80;2.03;;;14.80;91.20;;;;;;5041670;28;20143;-68
2024/02/16 10:32:16;;;;;;;5.00;3.03;;;14.80;91.20;;;;;;5043746;28;20028;-66
2024/02/16 10:34:44;;;;;;;5.07;2.80;;;14.80;91.20;;;;;;5054331;28;20096;-67
2024/02/16 10:37:12;;;;;;;3.67;2.20;;;14.80;91.20;;;;;;5051325;28;20024;-68
2024/02/16 10:39:40;;;;;;;4.25;2.00;;;14.70;91.30;;;;;;5048006;28;20527;-67
2024/02/16 10:42:08;;;;;;;3.47;1.80;;;14.70;91.30;;;;;;5051260;28;20112;-68
2024/02/16 10:44:35;;;;;;;2.83;1.90;;;14.80;91.40;;;;;;5048506;28;20029;-68
2024/02/16 10:47:01;;;;;;;2.90;1.70;;;14.80;91.40;;;;;;5050349;28;20043;-67
2024/02/16 10:49:26;;;;;;;2.90;1.60;;;14.70;91.70;;;;;;5047283;28;20032;-68
2024/02/16 10:51:58;;;;;;;2.65;1.83;;;14.70;91.50;;;;;;5048164;28;20029;-67
2024/02/16 10:54:27;;;;;;;;;;;14.70;91.90;;;;;;5048741;28;20017;-69
2024/02/16 10:56:53;;;;;;;3.50;1.80;;;14.70;91.60;;;;;;5045168;28;19909;-69
2024/02/16 10:59:19;;;;;;;3.72;2.35;;;14.70;91.70;;;;;;5046100;28;20031;-67
2024/02/16 11:01:45;;;;;;;3.53;2.20;;;14.60;91.70;;;;;;5048082;28;20044;-68
2024/02/16 11:04:18;;;;;;;2.63;1.70;;;14.60;91.80;;;;;;5046731;28;20031;-68
2024/02/16 11:06:59;;;;;;;3.50;1.92;;;14.60;91.90;;;;;;5048946;28;20048;-68
2024/02/16 11:09:38;;;;;;;3.63;1.70;;;14.60;91.90;;;;;;5043311;28;20025;-68
2024/02/16 11:12:06;;;;;;;2.88;2.10;;;14.60;92.00;;;;;;5043255;28;20025;-67
2024/02/16 11:14:43;;;;;;;2.83;1.90;;;14.50;92.00;;;;;;5047211;28;20036;-68
2024/02/16 11:17:12;;;;;;;2.88;1.85;;;14.50;92.10;;;;;;5049472;28;20387;-68
2024/02/16 11:19:41;;;;;;;2.90;1.98;;;14.50;92.20;;;;;;5047981;28;20025;-67
2024/02/16 11:22:08;;;;;;;4.32;2.60;;;14.40;92.20;;;;;;5045956;28;20628;-69
2024/02/16 11:24:35;;;;;;;4.80;2.58;;;14.40;92.30;;;;;;5046890;28;20037;-68
2024/02/16 11:27:21;;;;;;;2.65;1.88;;;14.40;92.40;;;;;;5048927;28;20021;-70
2024/02/16 11:29:48;;;;;;;3.60;2.33;;;14.30;92.50;;;;;;5046944;28;20108;-68
2024/02/16 11:32:14;;;;;;;3.15;2.33;;;14.30;92.60;;;;;;5040048;28;20017;-69
2024/02/16 11:34:39;;;;;;;3.72;2.70;;;14.20;92.70;;;;;;5049899;28;20028;-68
2024/02/16 11:37:05;;;;;;;3.10;2.40;;;14.20;92.80;;;;;;5053636;28;20025;-67
2024/02/16 11:39:32;;;;;;;4.05;2.05;;;14.10;92.90;;;;;;5049456;28;20044;-67
2024/02/16 11:42:05;;;;;;;4.78;2.67;;;14.10;93.00;;;;;;5049146;28;20021;-70
2024/02/16 11:44:33;;;;;;;3.88;2.50;;;14.10;93.10;;;;;;5044707;28;20021;-67
2024/02/16 11:46:59;;;;;;;5.32;2.53;;;14.00;93.20;;;;;;5055121;28;20396;-71
2024/02/16 11:49:26;;;;;;;3.35;2.45;;;14.00;93.30;;;;;;5044548;28;20029;-68
2024/02/16 11:51:52;;;;;;;3.85;2.50;;;14.00;93.40;;;;;;5048590;28;20017;-68
2024/02/16 11:54:17;;;;;;;6.03;2.67;;;14.00;93.60;;;;;;5048293;28;20017;-68
2024/02/16 11:56:45;;;;;;;3.30;2.75;;;13.90;93.70;;;;;;5050522;28;20021;-68
2024/02/16 11:59:15;;;;;;;3.95;2.25;;;13.90;93.90;;;;;;5050775;28;20017;-70
2024/02/16 12:01:58;;;;;;;3.28;2.30;;;13.80;93.90;;;;;;5047445;28;20017;-68
2024/02/16 12:04:28;;;;;;;3.47;2.40;;;13.80;94.20;;;;;;5048752;28;20048;-68
2024/02/16 12:06:59;;;;;;;2.80;2.00;;;13.80;94.20;;;;;;5051610;28;20021;-67
2024/02/16 12:09:24;;;;;;;3.37;2.60;;;13.80;94.40;;;;;;5050475;28;20063;-68
2024/02/16 12:11:52;;;;;;;2.15;1.60;;;13.80;94.40;;;;;;5051722;28;20064;-67
2024/02/16 12:14:18;;;;;;;4.25;2.30;;;13.80;94.50;;;;;;5049308;28;20514;-67
2024/02/16 12:16:51;;;;;;;2.00;1.80;;;13.70;94.50;;;;;;5049763;28;20017;-67
2024/02/16 12:19:22;;;;;;;1.92;1.70;;;13.70;94.50;;;;;;5049692;28;20030;-68
2024/02/16 12:21:50;;;;;;;2.53;1.80;;;13.70;94.60;;;;;;5044983;28;20050;-67
2024/02/16 12:24:16;;;;;;;1.50;1.40;;;13.80;94.70;;;;;;5050843;28;20025;-68
2024/02/16 12:26:41;;;;;;;1.83;1.60;;;13.80;94.70;;;;;;5049163;28;20032;-71
2024/02/16 12:29:08;;;;;;;2.05;1.70;;;13.80;94.60;;;;;;5050584;28;20033;-69
2024/02/16 12:31:37;;;;;;;2.30;1.90;;;13.90;94.70;;;;;;5050979;28;20483;-70
2024/02/16 12:34:05;;;;;;;2.90;1.77;;;13.90;94.70;;;;;;5047020;28;20017;-71
2024/02/16 12:36:30;;;;;;;2.33;1.80;;;13.90;94.70;;;;;;5049999;28;20021;-68
2024/02/16 12:38:56;;;;;;;2.13;1.75;;;13.80;94.70;;;;;;5050288;28;20036;-67
2024/02/16 12:41:22;;;;;;;2.80;2.00;;;13.80;94.80;;;;;;5050735;28;20033;-68
2024/02/16 12:43:47;;;;;;;2.08;1.70;;;13.90;94.80;;;;;;5050059;28;20513;-69